sensor_id;sensor_type;location;lat;lon;timestamp;P1;durP1;ratioP1;P2;durP2;ratioP2
6348;SDS011;3207;42.648;23.406;2023-06-10T00:01:45;10.10;;;5.93;;
6348;SDS011;3207;42.648;23.406;2023-06-10T00:04:13;6.20;;;5.60;;
6348;SDS011;3207;42.648;23.406;2023-06-10T00:06:40;7.20;;;5.82;;
6348;SDS011;3207;42.648;23.406;2023-06-10T00:09:07;7.22;;;6.07;;
6348;SDS011;3207;42.648;23.406;2023-06-10T00:11:35;6.38;;;5.88;;
6348;SDS011;3207;42.648;23.406;2023-06-10T00:14:02;6.95;;;5.13;;
6348;SDS011;3207;42.648;23.406;2023-06-10T00:16:29;6.35;;;5.30;;
6348;SDS011;3207;42.648;23.406;2023-06-10T00:18:57;6.53;;;5.88;;
6348;SDS011;3207;42.648;23.406;2023-06-10T00:21:25;5.95;;;5.22;;
6348;SDS011;3207;42.648;23.406;2023-06-10T00:23:52;7.63;;;5.32;;
6348;SDS011;3207;42.648;23.406;2023-06-10T00:26:20;6.28;;;5.28;;
6348;SDS011;3207;42.648;23.406;2023-06-10T00:28:47;6.78;;;5.45;;
6348;SDS011;3207;42.648;23.406;2023-06-10T00:31:14;7.00;;;4.88;;
6348;SDS011;3207;42.648;23.406;2023-06-10T00:33:41;6.88;;;5.25;;
6348;SDS011;3207;42.648;23.406;2023-06-10T00:36:09;6.30;;;4.95;;
6348;SDS011;3207;42.648;23.406;2023-06-10T00:38:36;5.88;;;5.38;;
6348;SDS011;3207;42.648;23.406;2023-06-10T00:41:03;5.75;;;4.75;;
6348;SDS011;3207;42.648;23.406;2023-06-10T00:43:30;6.20;;;4.80;;
6348;SDS011;3207;42.648;23.406;2023-06-10T00:45:57;5.43;;;4.72;;
6348;SDS011;3207;42.648;23.406;2023-06-10T00:48:24;5.22;;;4.72;;
6348;SDS011;3207;42.648;23.406;2023-06-10T00:50:51;5.97;;;5.20;;
6348;SDS011;3207;42.648;23.406;2023-06-10T00:53:19;6.70;;;5.18;;
6348;SDS011;3207;42.648;23.406;2023-06-10T00:55:48;5.18;;;4.22;;
6348;SDS011;3207;42.648;23.406;2023-06-10T00:58:15;4.95;;;4.50;;
6348;SDS011;3207;42.648;23.406;2023-06-10T01:00:42;6.32;;;4.63;;
6348;SDS011;3207;42.648;23.406;2023-06-10T01:03:13;6.43;;;5.00;;
6348;SDS011;3207;42.648;23.406;2023-06-10T01:05:42;5.40;;;4.20;;
6348;SDS011;3207;42.648;23.406;2023-06-10T01:08:09;5.82;;;4.30;;
6348;SDS011;3207;42.648;23.406;2023-06-10T01:10:43;4.35;;;3.97;;
6348;SDS011;3207;42.648;23.406;2023-06-10T01:13:10;8.85;;;4.10;;
6348;SDS011;3207;42.648;23.406;2023-06-10T01:15:38;4.75;;;4.35;;
6348;SDS011;3207;42.648;23.406;2023-06-10T01:18:05;4.50;;;4.10;;
6348;SDS011;3207;42.648;23.406;2023-06-10T01:20:35;5.25;;;4.75;;
6348;SDS011;3207;42.648;23.406;2023-06-10T01:23:06;5.05;;;3.95;;
6348;SDS011;3207;42.648;23.406;2023-06-10T01:25:33;5.57;;;4.40;;
6348;SDS011;3207;42.648;23.406;2023-06-10T01:28:02;5.57;;;4.38;;
6348;SDS011;3207;42.648;23.406;2023-06-10T01:30:31;4.80;;;4.40;;
6348;SDS011;3207;42.648;23.406;2023-06-10T01:33:02;5.43;;;4.32;;
6348;SDS011;3207;42.648;23.406;2023-06-10T01:35:35;5.60;;;4.25;;
6348;SDS011;3207;42.648;23.406;2023-06-10T01:38:03;8.00;;;4.72;;
6348;SDS011;3207;42.648;23.406;2023-06-10T01:40:31;5.47;;;4.97;;
6348;SDS011;3207;42.648;23.406;2023-06-10T01:42:58;4.97;;;4.47;;
6348;SDS011;3207;42.648;23.406;2023-06-10T01:45:25;7.00;;;5.05;;
6348;SDS011;3207;42.648;23.406;2023-06-10T01:47:51;5.22;;;4.70;;
6348;SDS011;3207;42.648;23.406;2023-06-10T01:50:18;5.05;;;4.38;;
6348;SDS011;3207;42.648;23.406;2023-06-10T01:52:45;7.75;;;5.32;;
6348;SDS011;3207;42.648;23.406;2023-06-10T01:55:11;5.38;;;4.82;;
6348;SDS011;3207;42.648;23.406;2023-06-10T01:57:39;5.75;;;4.93;;
6348;SDS011;3207;42.648;23.406;2023-06-10T02:00:06;6.60;;;6.00;;
6348;SDS011;3207;42.648;23.406;2023-06-10T02:02:33;5.47;;;4.90;;
6348;SDS011;3207;42.648;23.406;2023-06-10T02:05:00;7.10;;;5.15;;
6348;SDS011;3207;42.648;23.406;2023-06-10T02:07:26;5.75;;;5.18;;
6348;SDS011;3207;42.648;23.406;2023-06-10T02:09:53;5.45;;;4.95;;
6348;SDS011;3207;42.648;23.406;2023-06-10T02:12:19;7.13;;;5.95;;
6348;SDS011;3207;42.648;23.406;2023-06-10T02:14:47;7.28;;;5.30;;
6348;SDS011;3207;42.648;23.406;2023-06-10T02:17:14;5.18;;;4.78;;
6348;SDS011;3207;42.648;23.406;2023-06-10T02:19:41;5.40;;;4.93;;
6348;SDS011;3207;42.648;23.406;2023-06-10T02:22:08;5.10;;;4.45;;
6348;SDS011;3207;42.648;23.406;2023-06-10T02:24:35;5.50;;;5.00;;
6348;SDS011;3207;42.648;23.406;2023-06-10T02:27:02;6.13;;;5.20;;
6348;SDS011;3207;42.648;23.406;2023-06-10T02:29:31;5.72;;;5.22;;
6348;SDS011;3207;42.648;23.406;2023-06-10T02:31:59;5.80;;;5.28;;
6348;SDS011;3207;42.648;23.406;2023-06-10T02:34:26;7.68;;;5.60;;
6348;SDS011;3207;42.648;23.406;2023-06-10T02:36:52;5.78;;;5.18;;
6348;SDS011;3207;42.648;23.406;2023-06-10T02:39:19;7.13;;;5.18;;
6348;SDS011;3207;42.648;23.406;2023-06-10T02:41:45;6.57;;;4.95;;
6348;SDS011;3207;42.648;23.406;2023-06-10T02:44:12;5.55;;;5.05;;
6348;SDS011;3207;42.648;23.406;2023-06-10T02:46:38;6.60;;;5.53;;
6348;SDS011;3207;42.648;23.406;2023-06-10T02:49:07;5.32;;;4.82;;
6348;SDS011;3207;42.648;23.406;2023-06-10T02:51:33;7.40;;;5.70;;
6348;SDS011;3207;42.648;23.406;2023-06-10T02:54:00;4.88;;;4.47;;
6348;SDS011;3207;42.648;23.406;2023-06-10T02:56:27;6.15;;;5.03;;
6348;SDS011;3207;42.648;23.406;2023-06-10T02:58:54;5.70;;;5.10;;
6348;SDS011;3207;42.648;23.406;2023-06-10T03:01:20;5.70;;;5.20;;
6348;SDS011;3207;42.648;23.406;2023-06-10T03:03:47;9.43;;;5.78;;
6348;SDS011;3207;42.648;23.406;2023-06-10T03:06:16;5.60;;;5.10;;
6348;SDS011;3207;42.648;23.406;2023-06-10T03:08:43;6.32;;;5.43;;
6348;SDS011;3207;42.648;23.406;2023-06-10T03:11:10;9.43;;;5.55;;
6348;SDS011;3207;42.648;23.406;2023-06-10T03:13:38;5.68;;;5.10;;
6348;SDS011;3207;42.648;23.406;2023-06-10T03:16:04;6.57;;;5.97;;
6348;SDS011;3207;42.648;23.406;2023-06-10T03:18:31;5.75;;;5.25;;
6348;SDS011;3207;42.648;23.406;2023-06-10T03:20:58;6.63;;;5.43;;
6348;SDS011;3207;42.648;23.406;2023-06-10T03:23:26;5.43;;;4.93;;
6348;SDS011;3207;42.648;23.406;2023-06-10T03:25:54;5.50;;;5.00;;
6348;SDS011;3207;42.648;23.406;2023-06-10T03:28:21;5.68;;;5.00;;
6348;SDS011;3207;42.648;23.406;2023-06-10T03:30:47;6.35;;;5.80;;
6348;SDS011;3207;42.648;23.406;2023-06-10T03:33:14;6.47;;;5.88;;
6348;SDS011;3207;42.648;23.406;2023-06-10T03:35:40;6.32;;;5.28;;
6348;SDS011;3207;42.648;23.406;2023-06-10T03:38:07;9.00;;;6.22;;
6348;SDS011;3207;42.648;23.406;2023-06-10T03:40:35;6.22;;;5.65;;
6348;SDS011;3207;42.648;23.406;2023-06-10T03:43:02;7.00;;;5.18;;
6348;SDS011;3207;42.648;23.406;2023-06-10T03:45:28;6.80;;;6.13;;
6348;SDS011;3207;42.648;23.406;2023-06-10T03:47:55;6.90;;;5.80;;
6348;SDS011;3207;42.648;23.406;2023-06-10T03:50:22;9.30;;;5.95;;
6348;SDS011;3207;42.648;23.406;2023-06-10T03:52:49;10.55;;;6.18;;
6348;SDS011;3207;42.648;23.406;2023-06-10T03:55:16;5.95;;;5.45;;
6348;SDS011;3207;42.648;23.406;2023-06-10T03:57:44;6.80;;;6.20;;
6348;SDS011;3207;42.648;23.406;2023-06-10T04:00:11;6.68;;;5.85;;
6348;SDS011;3207;42.648;23.406;2023-06-10T04:02:37;6.72;;;5.82;;
6348;SDS011;3207;42.648;23.406;2023-06-10T04:05:11;6.03;;;5.43;;
6348;SDS011;3207;42.648;23.406;2023-06-10T04:07:37;5.72;;;5.22;;
6348;SDS011;3207;42.648;23.406;2023-06-10T04:10:06;11.30;;;5.55;;
6348;SDS011;3207;42.648;23.406;2023-06-10T04:12:33;7.38;;;5.50;;
6348;SDS011;3207;42.648;23.406;2023-06-10T04:15:01;7.93;;;6.03;;
6348;SDS011;3207;42.648;23.406;2023-06-10T04:17:28;6.82;;;6.22;;
6348;SDS011;3207;42.648;23.406;2023-06-10T04:19:55;6.90;;;6.30;;
6348;SDS011;3207;42.648;23.406;2023-06-10T04:22:22;7.65;;;6.28;;
6348;SDS011;3207;42.648;23.406;2023-06-10T04:24:49;5.90;;;5.40;;
6348;SDS011;3207;42.648;23.406;2023-06-10T04:27:15;7.10;;;5.47;;
6348;SDS011;3207;42.648;23.406;2023-06-10T04:29:42;6.05;;;5.45;;
6348;SDS011;3207;42.648;23.406;2023-06-10T04:32:10;5.47;;;5.07;;
6348;SDS011;3207;42.648;23.406;2023-06-10T04:34:36;6.32;;;5.43;;
6348;SDS011;3207;42.648;23.406;2023-06-10T04:37:04;6.55;;;5.55;;
6348;SDS011;3207;42.648;23.406;2023-06-10T04:39:31;7.22;;;5.65;;
6348;SDS011;3207;42.648;23.406;2023-06-10T04:41:57;7.28;;;6.18;;
6348;SDS011;3207;42.648;23.406;2023-06-10T04:44:24;7.15;;;5.72;;
6348;SDS011;3207;42.648;23.406;2023-06-10T04:46:51;8.85;;;6.05;;
6348;SDS011;3207;42.648;23.406;2023-06-10T04:49:19;9.63;;;6.07;;
6348;SDS011;3207;42.648;23.406;2023-06-10T04:51:46;6.97;;;6.38;;
6348;SDS011;3207;42.648;23.406;2023-06-10T04:54:13;6.47;;;5.88;;
6348;SDS011;3207;42.648;23.406;2023-06-10T04:56:40;7.28;;;5.93;;
6348;SDS011;3207;42.648;23.406;2023-06-10T04:59:10;7.90;;;5.93;;
6348;SDS011;3207;42.648;23.406;2023-06-10T05:01:37;8.45;;;7.65;;
6348;SDS011;3207;42.648;23.406;2023-06-10T05:04:04;9.25;;;8.27;;
6348;SDS011;3207;42.648;23.406;2023-06-10T05:06:32;11.98;;;8.18;;
6348;SDS011;3207;42.648;23.406;2023-06-10T05:08:59;11.32;;;7.93;;
6348;SDS011;3207;42.648;23.406;2023-06-10T05:11:26;8.23;;;7.53;;
6348;SDS011;3207;42.648;23.406;2023-06-10T05:13:52;10.40;;;7.95;;
6348;SDS011;3207;42.648;23.406;2023-06-10T05:16:19;9.57;;;7.85;;
6348;SDS011;3207;42.648;23.406;2023-06-10T05:18:46;8.73;;;7.90;;
6348;SDS011;3207;42.648;23.406;2023-06-10T05:21:13;10.07;;;7.97;;
6348;SDS011;3207;42.648;23.406;2023-06-10T05:23:42;9.77;;;8.77;;
6348;SDS011;3207;42.648;23.406;2023-06-10T05:26:08;11.15;;;8.35;;
6348;SDS011;3207;42.648;23.406;2023-06-10T05:28:35;24.00;;;8.85;;
6348;SDS011;3207;42.648;23.406;2023-06-10T05:31:02;11.60;;;9.07;;
6348;SDS011;3207;42.648;23.406;2023-06-10T05:33:29;8.75;;;7.85;;
6348;SDS011;3207;42.648;23.406;2023-06-10T05:35:56;9.00;;;8.13;;
6348;SDS011;3207;42.648;23.406;2023-06-10T05:38:23;10.15;;;8.88;;
6348;SDS011;3207;42.648;23.406;2023-06-10T05:40:51;9.10;;;8.07;;
6348;SDS011;3207;42.648;23.406;2023-06-10T05:43:18;9.40;;;8.35;;
6348;SDS011;3207;42.648;23.406;2023-06-10T05:45:45;13.02;;;8.30;;
6348;SDS011;3207;42.648;23.406;2023-06-10T05:48:11;14.75;;;8.50;;
6348;SDS011;3207;42.648;23.406;2023-06-10T05:50:39;9.77;;;8.75;;
6348;SDS011;3207;42.648;23.406;2023-06-10T05:53:07;9.25;;;8.30;;
6348;SDS011;3207;42.648;23.406;2023-06-10T05:55:39;9.02;;;8.23;;
6348;SDS011;3207;42.648;23.406;2023-06-10T05:58:07;8.23;;;7.25;;
6348;SDS011;3207;42.648;23.406;2023-06-10T06:00:34;8.65;;;7.85;;
6348;SDS011;3207;42.648;23.406;2023-06-10T06:03:01;7.97;;;7.18;;
6348;SDS011;3207;42.648;23.406;2023-06-10T06:05:27;8.98;;;7.43;;
6348;SDS011;3207;42.648;23.406;2023-06-10T06:07:59;8.43;;;7.40;;
6348;SDS011;3207;42.648;23.406;2023-06-10T06:10:26;8.13;;;7.32;;
6348;SDS011;3207;42.648;23.406;2023-06-10T06:12:53;8.45;;;7.22;;
6348;SDS011;3207;42.648;23.406;2023-06-10T06:15:21;7.80;;;7.10;;
6348;SDS011;3207;42.648;23.406;2023-06-10T06:17:49;9.93;;;7.55;;
6348;SDS011;3207;42.648;23.406;2023-06-10T06:20:17;12.38;;;8.68;;
6348;SDS011;3207;42.648;23.406;2023-06-10T06:22:44;9.38;;;8.27;;
6348;SDS011;3207;42.648;23.406;2023-06-10T06:25:11;8.63;;;7.82;;
6348;SDS011;3207;42.648;23.406;2023-06-10T06:27:37;10.65;;;7.93;;
6348;SDS011;3207;42.648;23.406;2023-06-10T06:30:04;7.65;;;6.97;;
6348;SDS011;3207;42.648;23.406;2023-06-10T06:32:33;7.93;;;7.13;;
6348;SDS011;3207;42.648;23.406;2023-06-10T06:35:00;7.32;;;6.15;;
6348;SDS011;3207;42.648;23.406;2023-06-10T06:37:28;7.60;;;6.70;;
6348;SDS011;3207;42.648;23.406;2023-06-10T06:39:54;7.22;;;6.63;;
6348;SDS011;3207;42.648;23.406;2023-06-10T06:42:21;7.25;;;6.55;;
6348;SDS011;3207;42.648;23.406;2023-06-10T06:44:48;7.78;;;7.00;;
6348;SDS011;3207;42.648;23.406;2023-06-10T06:47:15;8.90;;;7.15;;
6348;SDS011;3207;42.648;23.406;2023-06-10T06:49:46;8.70;;;7.80;;
6348;SDS011;3207;42.648;23.406;2023-06-10T06:52:12;8.32;;;6.40;;
6348;SDS011;3207;42.648;23.406;2023-06-10T06:54:40;10.48;;;7.25;;
6348;SDS011;3207;42.648;23.406;2023-06-10T06:57:06;8.75;;;7.18;;
6348;SDS011;3207;42.648;23.406;2023-06-10T06:59:33;7.97;;;7.07;;
6348;SDS011;3207;42.648;23.406;2023-06-10T07:02:00;8.48;;;7.65;;
6348;SDS011;3207;42.648;23.406;2023-06-10T07:04:27;7.57;;;6.97;;
6348;SDS011;3207;42.648;23.406;2023-06-10T07:06:55;8.65;;;7.85;;
6348;SDS011;3207;42.648;23.406;2023-06-10T07:09:22;10.93;;;8.05;;
6348;SDS011;3207;42.648;23.406;2023-06-10T07:11:49;7.70;;;6.90;;
6348;SDS011;3207;42.648;23.406;2023-06-10T07:14:15;7.60;;;7.00;;
6348;SDS011;3207;42.648;23.406;2023-06-10T07:16:42;11.85;;;8.10;;
6348;SDS011;3207;42.648;23.406;2023-06-10T07:19:10;7.93;;;7.13;;
6348;SDS011;3207;42.648;23.406;2023-06-10T07:21:37;8.00;;;7.20;;
6348;SDS011;3207;42.648;23.406;2023-06-10T07:24:05;9.10;;;8.20;;
6348;SDS011;3207;42.648;23.406;2023-06-10T07:26:32;9.75;;;7.78;;
6348;SDS011;3207;42.648;23.406;2023-06-10T07:28:59;10.40;;;8.43;;
6348;SDS011;3207;42.648;23.406;2023-06-10T07:31:26;8.20;;;7.50;;
6348;SDS011;3207;42.648;23.406;2023-06-10T07:33:53;8.82;;;7.45;;
6348;SDS011;3207;42.648;23.406;2023-06-10T07:36:20;9.35;;;7.68;;
6348;SDS011;3207;42.648;23.406;2023-06-10T07:38:46;8.30;;;7.35;;
6348;SDS011;3207;42.648;23.406;2023-06-10T07:41:15;8.18;;;7.45;;
6348;SDS011;3207;42.648;23.406;2023-06-10T07:43:43;7.95;;;7.18;;
6348;SDS011;3207;42.648;23.406;2023-06-10T07:46:10;16.42;;;7.85;;
6348;SDS011;3207;42.648;23.406;2023-06-10T07:48:39;8.70;;;7.63;;
6348;SDS011;3207;42.648;23.406;2023-06-10T07:51:07;9.07;;;7.07;;
6348;SDS011;3207;42.648;23.406;2023-06-10T07:53:34;8.40;;;7.65;;
6348;SDS011;3207;42.648;23.406;2023-06-10T07:56:01;8.50;;;7.43;;
6348;SDS011;3207;42.648;23.406;2023-06-10T07:58:29;15.77;;;7.43;;
6348;SDS011;3207;42.648;23.406;2023-06-10T08:00:56;10.98;;;8.40;;
6348;SDS011;3207;42.648;23.406;2023-06-10T08:03:22;7.80;;;7.10;;
6348;SDS011;3207;42.648;23.406;2023-06-10T08:05:49;8.02;;;6.88;;
6348;SDS011;3207;42.648;23.406;2023-06-10T08:08:16;8.23;;;6.63;;
6348;SDS011;3207;42.648;23.406;2023-06-10T08:10:43;9.18;;;8.15;;
6348;SDS011;3207;42.648;23.406;2023-06-10T08:13:10;8.48;;;7.68;;
6348;SDS011;3207;42.648;23.406;2023-06-10T08:15:38;9.23;;;6.78;;
6348;SDS011;3207;42.648;23.406;2023-06-10T08:18:05;7.05;;;6.15;;
6348;SDS011;3207;42.648;23.406;2023-06-10T08:20:31;6.05;;;5.65;;
6348;SDS011;3207;42.648;23.406;2023-06-10T08:22:58;6.78;;;6.20;;
6348;SDS011;3207;42.648;23.406;2023-06-10T08:25:25;9.30;;;6.35;;
6348;SDS011;3207;42.648;23.406;2023-06-10T08:27:52;6.57;;;5.95;;
6348;SDS011;3207;42.648;23.406;2023-06-10T08:30:21;6.18;;;5.68;;
6348;SDS011;3207;42.648;23.406;2023-06-10T08:32:49;6.57;;;5.97;;
6348;SDS011;3207;42.648;23.406;2023-06-10T08:35:17;6.68;;;6.07;;
6348;SDS011;3207;42.648;23.406;2023-06-10T08:37:44;7.55;;;6.88;;
6348;SDS011;3207;42.648;23.406;2023-06-10T08:40:11;6.85;;;6.25;;
6348;SDS011;3207;42.648;23.406;2023-06-10T08:42:39;6.78;;;6.18;;
6348;SDS011;3207;42.648;23.406;2023-06-10T08:45:11;6.65;;;6.07;;
6348;SDS011;3207;42.648;23.406;2023-06-10T08:47:43;6.70;;;6.18;;
6348;SDS011;3207;42.648;23.406;2023-06-10T08:50:12;7.05;;;6.35;;
6348;SDS011;3207;42.648;23.406;2023-06-10T08:52:43;6.40;;;5.90;;
6348;SDS011;3207;42.648;23.406;2023-06-10T08:55:13;7.82;;;6.28;;
6348;SDS011;3207;42.648;23.406;2023-06-10T08:57:43;5.90;;;5.50;;
6348;SDS011;3207;42.648;23.406;2023-06-10T09:00:11;6.78;;;6.22;;
6348;SDS011;3207;42.648;23.406;2023-06-10T09:02:39;7.20;;;6.63;;
6348;SDS011;3207;42.648;23.406;2023-06-10T09:05:06;7.13;;;6.43;;
6348;SDS011;3207;42.648;23.406;2023-06-10T09:07:35;6.90;;;5.78;;
6348;SDS011;3207;42.648;23.406;2023-06-10T09:10:03;6.80;;;6.20;;
6348;SDS011;3207;42.648;23.406;2023-06-10T09:12:32;7.90;;;7.07;;
6348;SDS011;3207;42.648;23.406;2023-06-10T09:15:00;6.80;;;6.20;;
6348;SDS011;3207;42.648;23.406;2023-06-10T09:17:27;6.45;;;5.95;;
6348;SDS011;3207;42.648;23.406;2023-06-10T09:19:54;7.45;;;6.75;;
6348;SDS011;3207;42.648;23.406;2023-06-10T09:22:22;7.65;;;6.95;;
6348;SDS011;3207;42.648;23.406;2023-06-10T09:24:52;7.50;;;6.90;;
6348;SDS011;3207;42.648;23.406;2023-06-10T09:27:29;6.93;;;6.05;;
6348;SDS011;3207;42.648;23.406;2023-06-10T09:29:57;8.38;;;7.03;;
6348;SDS011;3207;42.648;23.406;2023-06-10T09:32:24;9.35;;;8.45;;
6348;SDS011;3207;42.648;23.406;2023-06-10T09:34:51;9.35;;;8.55;;
6348;SDS011;3207;42.648;23.406;2023-06-10T09:37:21;10.73;;;9.73;;
6348;SDS011;3207;42.648;23.406;2023-06-10T09:40:06;11.48;;;10.27;;
6348;SDS011;3207;42.648;23.406;2023-06-10T09:42:36;12.18;;;10.88;;
6348;SDS011;3207;42.648;23.406;2023-06-10T09:45:04;12.80;;;10.65;;
6348;SDS011;3207;42.648;23.406;2023-06-10T09:47:32;10.20;;;9.23;;
6348;SDS011;3207;42.648;23.406;2023-06-10T09:49:59;11.48;;;10.38;;
6348;SDS011;3207;42.648;23.406;2023-06-10T09:52:27;9.10;;;7.65;;
6348;SDS011;3207;42.648;23.406;2023-06-10T09:54:59;8.43;;;7.05;;
6348;SDS011;3207;42.648;23.406;2023-06-10T09:57:32;6.50;;;5.95;;
6348;SDS011;3207;42.648;23.406;2023-06-10T09:59:59;8.23;;;6.95;;
6348;SDS011;3207;42.648;23.406;2023-06-10T10:02:26;7.80;;;5.85;;
6348;SDS011;3207;42.648;23.406;2023-06-10T10:04:52;5.97;;;5.03;;
6348;SDS011;3207;42.648;23.406;2023-06-10T10:07:19;5.20;;;4.72;;
6348;SDS011;3207;42.648;23.406;2023-06-10T10:09:46;5.38;;;4.97;;
6348;SDS011;3207;42.648;23.406;2023-06-10T10:12:14;5.28;;;4.78;;
6348;SDS011;3207;42.648;23.406;2023-06-10T10:14:45;5.80;;;5.30;;
6348;SDS011;3207;42.648;23.406;2023-06-10T10:17:14;6.25;;;5.75;;
6348;SDS011;3207;42.648;23.406;2023-06-10T10:19:43;7.60;;;5.63;;
6348;SDS011;3207;42.648;23.406;2023-06-10T10:22:18;6.53;;;6.03;;
6348;SDS011;3207;42.648;23.406;2023-06-10T10:24:52;6.18;;;5.43;;
6348;SDS011;3207;42.648;23.406;2023-06-10T10:27:25;8.10;;;4.97;;
6348;SDS011;3207;42.648;23.406;2023-06-10T10:29:55;5.10;;;4.72;;
6348;SDS011;3207;42.648;23.406;2023-06-10T10:32:26;7.18;;;6.57;;
6348;SDS011;3207;42.648;23.406;2023-06-10T10:35:00;9.15;;;7.22;;
6348;SDS011;3207;42.648;23.406;2023-06-10T10:37:33;7.07;;;6.38;;
6348;SDS011;3207;42.648;23.406;2023-06-10T10:40:01;8.75;;;7.85;;
6348;SDS011;3207;42.648;23.406;2023-06-10T10:42:30;9.18;;;8.27;;
6348;SDS011;3207;42.648;23.406;2023-06-10T10:44:59;9.38;;;8.48;;
6348;SDS011;3207;42.648;23.406;2023-06-10T10:47:26;8.32;;;7.50;;
6348;SDS011;3207;42.648;23.406;2023-06-10T10:49:55;8.07;;;7.10;;
6348;SDS011;3207;42.648;23.406;2023-06-10T10:52:24;9.50;;;7.40;;
6348;SDS011;3207;42.648;23.406;2023-06-10T10:54:52;7.05;;;6.30;;
6348;SDS011;3207;42.648;23.406;2023-06-10T10:57:19;7.57;;;6.88;;
6348;SDS011;3207;42.648;23.406;2023-06-10T10:59:54;6.85;;;6.25;;
6348;SDS011;3207;42.648;23.406;2023-06-10T11:02:35;8.18;;;7.38;;
6348;SDS011;3207;42.648;23.406;2023-06-10T11:05:08;6.53;;;5.90;;
6348;SDS011;3207;42.648;23.406;2023-06-10T11:07:36;6.68;;;6.07;;
6348;SDS011;3207;42.648;23.406;2023-06-10T11:10:06;9.65;;;6.68;;
6348;SDS011;3207;42.648;23.406;2023-06-10T11:12:41;5.78;;;5.38;;
6348;SDS011;3207;42.648;23.406;2023-06-10T11:15:18;5.38;;;4.97;;
6348;SDS011;3207;42.648;23.406;2023-06-10T11:20:45;3.97;;;3.65;;
6348;SDS011;3207;42.648;23.406;2023-06-10T11:26:09;4.72;;;4.40;;
6348;SDS011;3207;42.648;23.406;2023-06-10T11:28:39;4.35;;;4.03;;
6348;SDS011;3207;42.648;23.406;2023-06-10T11:31:07;4.80;;;4.40;;
6348;SDS011;3207;42.648;23.406;2023-06-10T11:33:38;4.28;;;3.92;;
6348;SDS011;3207;42.648;23.406;2023-06-10T11:36:06;4.72;;;4.32;;
6348;SDS011;3207;42.648;23.406;2023-06-10T11:38:33;4.28;;;3.97;;
6348;SDS011;3207;42.648;23.406;2023-06-10T11:41:01;4.88;;;4.57;;
6348;SDS011;3207;42.648;23.406;2023-06-10T11:43:27;4.97;;;4.47;;
6348;SDS011;3207;42.648;23.406;2023-06-10T11:45:56;5.72;;;5.13;;
6348;SDS011;3207;42.648;23.406;2023-06-10T11:48:23;5.88;;;4.93;;
6348;SDS011;3207;42.648;23.406;2023-06-10T11:50:52;5.32;;;4.93;;
6348;SDS011;3207;42.648;23.406;2023-06-10T11:53:19;5.88;;;5.35;;
6348;SDS011;3207;42.648;23.406;2023-06-10T11:55:46;4.85;;;4.53;;
6348;SDS011;3207;42.648;23.406;2023-06-10T11:58:14;5.50;;;4.72;;
6348;SDS011;3207;42.648;23.406;2023-06-10T12:00:45;6.05;;;5.28;;
6348;SDS011;3207;42.648;23.406;2023-06-10T12:03:12;5.60;;;5.20;;
6348;SDS011;3207;42.648;23.406;2023-06-10T12:05:39;5.28;;;4.88;;
6348;SDS011;3207;42.648;23.406;2023-06-10T12:08:11;6.20;;;5.60;;
6348;SDS011;3207;42.648;23.406;2023-06-10T12:10:41;5.35;;;4.95;;
6348;SDS011;3207;42.648;23.406;2023-06-10T12:13:09;6.53;;;5.93;;
6348;SDS011;3207;42.648;23.406;2023-06-10T12:15:36;5.75;;;5.35;;
6348;SDS011;3207;42.648;23.406;2023-06-10T12:18:02;6.30;;;5.75;;
6348;SDS011;3207;42.648;23.406;2023-06-10T12:20:30;6.55;;;6.05;;
6348;SDS011;3207;42.648;23.406;2023-06-10T12:22:59;6.25;;;5.75;;
6348;SDS011;3207;42.648;23.406;2023-06-10T12:25:28;6.13;;;5.63;;
6348;SDS011;3207;42.648;23.406;2023-06-10T12:27:55;7.55;;;5.85;;
6348;SDS011;3207;42.648;23.406;2023-06-10T12:30:24;7.65;;;5.63;;
6348;SDS011;3207;42.648;23.406;2023-06-10T12:32:52;5.50;;;5.10;;
6348;SDS011;3207;42.648;23.406;2023-06-10T12:35:20;6.32;;;5.75;;
6348;SDS011;3207;42.648;23.406;2023-06-10T12:37:55;6.18;;;5.45;;
6348;SDS011;3207;42.648;23.406;2023-06-10T12:40:29;6.30;;;5.82;;
6348;SDS011;3207;42.648;23.406;2023-06-10T12:42:57;6.47;;;5.97;;
6348;SDS011;3207;42.648;23.406;2023-06-10T12:45:28;6.20;;;5.53;;
6348;SDS011;3207;42.648;23.406;2023-06-10T12:48:04;7.05;;;5.63;;
6348;SDS011;3207;42.648;23.406;2023-06-10T12:50:34;6.82;;;6.15;;
6348;SDS011;3207;42.648;23.406;2023-06-10T12:53:02;7.65;;;5.50;;
6348;SDS011;3207;42.648;23.406;2023-06-10T12:55:30;6.43;;;5.63;;
6348;SDS011;3207;42.648;23.406;2023-06-10T12:57:57;6.47;;;5.50;;
6348;SDS011;3207;42.648;23.406;2023-06-10T13:00:25;6.65;;;6.15;;
6348;SDS011;3207;42.648;23.406;2023-06-10T13:02:54;6.78;;;6.18;;
6348;SDS011;3207;42.648;23.406;2023-06-10T13:05:21;6.78;;;6.03;;
6348;SDS011;3207;42.648;23.406;2023-06-10T13:07:48;6.40;;;5.93;;
6348;SDS011;3207;42.648;23.406;2023-06-10T13:10:16;6.05;;;5.55;;
6348;SDS011;3207;42.648;23.406;2023-06-10T13:12:45;5.97;;;5.47;;
6348;SDS011;3207;42.648;23.406;2023-06-10T13:15:12;5.57;;;5.07;;
6348;SDS011;3207;42.648;23.406;2023-06-10T13:17:39;6.47;;;5.22;;
6348;SDS011;3207;42.648;23.406;2023-06-10T13:20:07;5.95;;;5.55;;
6348;SDS011;3207;42.648;23.406;2023-06-10T13:22:34;5.78;;;5.38;;
6348;SDS011;3207;42.648;23.406;2023-06-10T13:25:01;5.68;;;5.28;;
6348;SDS011;3207;42.648;23.406;2023-06-10T13:27:29;6.65;;;6.03;;
6348;SDS011;3207;42.648;23.406;2023-06-10T13:29:57;6.70;;;6.13;;
6348;SDS011;3207;42.648;23.406;2023-06-10T13:32:24;6.40;;;5.90;;
6348;SDS011;3207;42.648;23.406;2023-06-10T13:34:51;5.78;;;5.28;;
6348;SDS011;3207;42.648;23.406;2023-06-10T13:37:19;6.80;;;6.25;;
6348;SDS011;3207;42.648;23.406;2023-06-10T13:39:46;6.72;;;6.22;;
6348;SDS011;3207;42.648;23.406;2023-06-10T13:42:13;6.07;;;5.57;;
6348;SDS011;3207;42.648;23.406;2023-06-10T13:44:40;6.57;;;5.97;;
6348;SDS011;3207;42.648;23.406;2023-06-10T13:47:08;6.97;;;5.75;;
6348;SDS011;3207;42.648;23.406;2023-06-10T13:49:35;6.15;;;5.65;;
6348;SDS011;3207;42.648;23.406;2023-06-10T13:52:02;6.32;;;5.90;;
6348;SDS011;3207;42.648;23.406;2023-06-10T13:54:29;7.60;;;6.38;;
6348;SDS011;3207;42.648;23.406;2023-06-10T13:56:56;6.63;;;6.13;;
6348;SDS011;3207;42.648;23.406;2023-06-10T13:59:24;6.47;;;5.82;;
6348;SDS011;3207;42.648;23.406;2023-06-10T14:01:51;6.10;;;5.60;;
6348;SDS011;3207;42.648;23.406;2023-06-10T14:04:19;6.55;;;6.00;;
6348;SDS011;3207;42.648;23.406;2023-06-10T14:06:46;6.35;;;5.85;;
6348;SDS011;3207;42.648;23.406;2023-06-10T14:09:13;7.15;;;5.28;;
6348;SDS011;3207;42.648;23.406;2023-06-10T14:11:41;9.27;;;5.32;;
6348;SDS011;3207;42.648;23.406;2023-06-10T14:14:08;5.60;;;5.18;;
6348;SDS011;3207;42.648;23.406;2023-06-10T14:16:35;6.22;;;5.72;;
6348;SDS011;3207;42.648;23.406;2023-06-10T14:19:02;8.35;;;5.53;;
6348;SDS011;3207;42.648;23.406;2023-06-10T14:21:30;6.97;;;6.38;;
6348;SDS011;3207;42.648;23.406;2023-06-10T14:24:01;7.00;;;5.32;;
6348;SDS011;3207;42.648;23.406;2023-06-10T14:26:28;6.50;;;6.00;;
6348;SDS011;3207;42.648;23.406;2023-06-10T14:28:56;7.00;;;6.28;;
6348;SDS011;3207;42.648;23.406;2023-06-10T14:31:23;6.00;;;5.50;;
6348;SDS011;3207;42.648;23.406;2023-06-10T14:33:50;5.70;;;5.20;;
6348;SDS011;3207;42.648;23.406;2023-06-10T14:36:17;7.32;;;6.30;;
6348;SDS011;3207;42.648;23.406;2023-06-10T14:38:45;6.90;;;6.32;;
6348;SDS011;3207;42.648;23.406;2023-06-10T14:41:12;9.52;;;6.30;;
6348;SDS011;3207;42.648;23.406;2023-06-10T14:43:39;7.57;;;6.63;;
6348;SDS011;3207;42.648;23.406;2023-06-10T14:46:06;6.65;;;6.15;;
6348;SDS011;3207;42.648;23.406;2023-06-10T14:48:33;7.22;;;6.72;;
6348;SDS011;3207;42.648;23.406;2023-06-10T14:51:00;7.13;;;6.45;;
6348;SDS011;3207;42.648;23.406;2023-06-10T14:53:27;6.50;;;5.90;;
6348;SDS011;3207;42.648;23.406;2023-06-10T14:55:55;7.82;;;6.47;;
6348;SDS011;3207;42.648;23.406;2023-06-10T14:58:22;7.18;;;6.05;;
6348;SDS011;3207;42.648;23.406;2023-06-10T15:00:49;6.43;;;5.78;;
6348;SDS011;3207;42.648;23.406;2023-06-10T15:03:16;7.47;;;6.72;;
6348;SDS011;3207;42.648;23.406;2023-06-10T15:05:43;6.78;;;6.28;;
6348;SDS011;3207;42.648;23.406;2023-06-10T15:08:10;6.80;;;6.15;;
6348;SDS011;3207;42.648;23.406;2023-06-10T15:10:36;6.90;;;6.30;;